Forest Green, Missouri
Current Conditions -  °F | °C
As of 11:55 PM on Tuesday 21 Oct 2014 (Local Time) from KVER Reporting Station
Haze Haze  
Wind Chill: 52°   Ceiling: 500
Heat Index: 52°   Visibility: 0.75mi
Dew Point: 43°   Wind: 5mph
Humidity: 72%   Direction: 100°E
Pressure: 30.17"   Gusts: NA
Location:  39.4605°N, 92.8061°W
Report Text: KVER 220455Z AUTO 10004KT 3/4SM HZ VV005 11/06 A3017 RMK AO2 T01090061
Loading
Personal Weather Stations






























Interactive Weather Map
Tropical Storm Tracking
New forecast layout! Learn more

10-Day Weather Forecast

Advertisements
Track Severe Weather on mobile